createdAt,value
2022-08-29T00:01:11.123Z,98243.90
2022-08-29T00:03:44.046Z,98239.95
2022-08-29T00:06:23.358Z,98241.49
2022-08-29T00:08:59.952Z,98239.16
2022-08-29T00:11:30.467Z,98237.05
2022-08-29T00:14:02.166Z,98237.30
2022-08-29T00:16:34.778Z,98236.16
2022-08-29T00:19:12.769Z,98234.77
2022-08-29T00:21:48.922Z,98234.45
2022-08-29T00:24:22.308Z,98226.49
2022-08-29T00:26:50.703Z,98227.91
2022-08-29T00:29:39.802Z,98223.21
2022-08-29T00:32:16.142Z,98222.79
2022-08-29T00:34:44.187Z,98221.07
2022-08-29T00:37:13.262Z,98223.19
2022-08-29T00:39:45.655Z,98225.53
2022-08-29T00:42:17.368Z,98222.08
2022-08-29T00:44:52.250Z,98221.27
2022-08-29T00:47:34.101Z,98223.81
2022-08-29T00:50:02.833Z,98219.28
2022-08-29T00:52:38.578Z,98220.63
2022-08-29T00:55:21.431Z,98220.32
2022-08-29T00:58:06.775Z,98221.52
2022-08-29T01:00:39.170Z,98222.96
2022-08-29T01:03:20.037Z,98226.02
2022-08-29T01:05:59.508Z,98226.89
2022-08-29T01:08:34.987Z,98231.57
2022-08-29T01:11:25.277Z,98231.79
2022-08-29T01:14:08.454Z,98236.84
2022-08-29T01:16:38.809Z,98238.80
2022-08-29T01:19:12.323Z,98240.42
2022-08-29T01:21:59.169Z,98242.38
2022-08-29T01:24:44.437Z,98240.98
2022-08-29T01:27:14.549Z,98245.41
2022-08-29T01:29:45.513Z,98247.80
2022-08-29T01:32:21.304Z,98249.77
2022-08-29T01:34:57.924Z,98246.90
2022-08-29T01:37:33.464Z,98245.98
2022-08-29T01:40:09.900Z,98242.37
2022-08-29T01:42:44.844Z,98241.17
2022-08-29T01:45:19.507Z,98247.91
2022-08-29T01:47:55.285Z,98247.05
2022-08-29T01:50:31.320Z,98249.45
2022-08-29T01:53:03.790Z,98246.36
2022-08-29T01:55:40.189Z,98249.40
2022-08-29T01:58:09.342Z,98251.40
2022-08-29T02:00:44.339Z,98253.47
2022-08-29T02:03:20.524Z,98255.60
2022-08-29T02:05:57.738Z,98251.22
2022-08-29T02:08:32.206Z,98250.50
2022-08-29T02:11:06.568Z,98250.72
2022-08-29T02:13:38.646Z,98252.51
2022-08-29T02:16:17.512Z,98248.52
2022-08-29T02:18:48.833Z,98254.75
2022-08-29T02:21:28.444Z,98254.27
2022-08-29T02:24:24.431Z,98252.27
2022-08-29T02:27:05.297Z,98252.75
2022-08-29T02:29:47.431Z,98256.55
2022-08-29T02:32:15.549Z,98258.65
2022-08-29T02:34:49.706Z,98259.41
2022-08-29T02:37:19.101Z,98260.82
2022-08-29T02:39:50.925Z,98262.60
2022-08-29T02:42:22.862Z,98263.25
2022-08-29T02:44:56.855Z,98254.21
2022-08-29T02:47:34.162Z,98257.80
2022-08-29T02:50:07.778Z,98260.02
2022-08-29T02:52:47.728Z,98264.56
2022-08-29T02:55:25.625Z,98265.70
2022-08-29T02:57:54.335Z,98266.45
2022-08-29T03:00:26.191Z,98269.17
2022-08-29T03:03:03.831Z,98273.55
2022-08-29T03:05:37.430Z,98279.55
2022-08-29T03:08:14.285Z,98283.95
2022-08-29T03:10:49.909Z,98288.00
2022-08-29T03:13:29.657Z,98292.70
2022-08-29T03:16:03.928Z,98293.11
2022-08-29T03:18:39.757Z,98297.00
2022-08-29T03:21:14.731Z,98295.42
2022-08-29T03:23:45.292Z,98303.56
2022-08-29T03:26:17.935Z,98303.66
2022-08-29T03:28:53.357Z,98306.11
2022-08-29T03:31:28.757Z,98307.90
2022-08-29T03:33:59.974Z,98308.60
2022-08-29T03:36:32.183Z,98311.57
2022-08-29T03:39:01.437Z,98313.10
2022-08-29T03:41:34.133Z,98317.59
2022-08-29T03:44:07.306Z,98317.48
2022-08-29T03:46:44.123Z,98320.83
2022-08-29T03:49:18.670Z,98325.92
2022-08-29T03:51:50.285Z,98326.69
2022-08-29T03:54:18.345Z,98328.78
2022-08-29T03:57:04.910Z,98330.41
2022-08-29T03:59:39.082Z,98332.73
2022-08-29T04:02:13.948Z,98334.90
2022-08-29T04:05:05.903Z,98336.95
2022-08-29T04:08:02.155Z,98344.48
2022-08-29T04:10:38.751Z,98346.39
2022-08-29T04:13:12.311Z,98344.59
2022-08-29T04:15:44.933Z,98344.64
2022-08-29T04:18:21.422Z,98342.16
2022-08-29T04:21:13.016Z,98335.77
2022-08-29T04:23:46.372Z,98336.16
2022-08-29T04:26:43.304Z,98336.64
2022-08-29T04:29:18.043Z,98340.92
2022-08-29T04:31:46.024Z,98343.69
2022-08-29T04:34:14.307Z,98343.04
2022-08-29T04:36:52.101Z,98343.79
2022-08-29T04:39:30.754Z,98346.30
2022-08-29T04:42:02.113Z,98349.07
2022-08-29T04:44:30.219Z,98350.30
2022-08-29T04:47:01.370Z,98349.58
2022-08-29T04:49:40.903Z,98346.22
2022-08-29T04:52:17.989Z,98346.26
2022-08-29T04:55:02.302Z,98345.58
2022-08-29T04:57:38.395Z,98351.96
2022-08-29T05:00:15.662Z,98353.65
2022-08-29T05:02:46.245Z,98352.77
2022-08-29T05:05:26.544Z,98352.66
2022-08-29T05:08:00.068Z,98353.89
2022-08-29T05:10:30.341Z,98347.90
2022-08-29T05:13:07.384Z,98348.59
2022-08-29T05:15:46.049Z,98350.79
2022-08-29T05:18:25.762Z,98352.84
2022-08-29T05:21:10.109Z,98349.51
2022-08-29T05:23:54.033Z,98346.88
2022-08-29T05:26:31.689Z,98347.48
2022-08-29T05:29:08.342Z,98348.09
2022-08-29T05:31:49.830Z,98345.12
2022-08-29T05:34:35.075Z,98342.91
2022-08-29T05:37:13.334Z,98348.33
2022-08-29T05:39:49.458Z,98349.80
2022-08-29T05:42:27.741Z,98346.23
2022-08-29T05:45:05.053Z,98343.36
2022-08-29T05:47:36.488Z,98340.96
2022-08-29T05:50:11.882Z,98341.33
2022-08-29T05:52:49.281Z,98343.66
2022-08-29T05:55:17.599Z,98339.08
2022-08-29T05:57:49.622Z,98337.76
2022-08-29T06:00:23.930Z,98336.66
2022-08-29T06:02:58.663Z,98334.91
2022-08-29T06:05:32.948Z,98336.44
2022-08-29T06:08:11.508Z,98335.43
2022-08-29T06:10:47.878Z,98336.89
2022-08-29T06:13:27.208Z,98337.96
2022-08-29T06:16:02.049Z,98341.25
2022-08-29T06:18:44.626Z,98338.77
2022-08-29T06:21:16.950Z,98336.61
2022-08-29T06:23:49.394Z,98336.15
2022-08-29T06:26:28.357Z,98339.90
2022-08-29T06:29:04.534Z,98339.84
2022-08-29T06:31:41.160Z,98344.19
2022-08-29T06:34:15.346Z,98343.27
2022-08-29T06:36:44.503Z,98344.99
2022-08-29T06:39:18.673Z,98347.34
2022-08-29T06:41:59.499Z,98343.70
2022-08-29T06:44:31.957Z,98347.21
2022-08-29T06:47:01.177Z,98349.25
2022-08-29T06:49:33.302Z,98348.04
2022-08-29T06:52:16.210Z,98349.03
2022-08-29T06:54:52.783Z,98350.25
2022-08-29T06:57:22.225Z,98351.51
2022-08-29T06:59:56.655Z,98352.63
2022-08-29T07:02:27.578Z,98349.25
2022-08-29T07:05:02.316Z,98348.95
2022-08-29T07:07:30.985Z,98349.30
2022-08-29T07:10:12.693Z,98348.55
2022-08-29T07:12:53.104Z,98345.38
2022-08-29T07:15:27.275Z,98347.09
2022-08-29T07:17:59.970Z,98345.11
2022-08-29T07:20:35.977Z,98343.08
2022-08-29T07:23:11.259Z,98341.69
2022-08-29T07:25:53.559Z,98343.40
2022-08-29T07:28:36.118Z,98342.77
2022-08-29T07:31:23.574Z,98341.04
2022-08-29T07:34:02.262Z,98341.46
2022-08-29T07:36:43.325Z,98342.98
2022-08-29T07:39:20.569Z,98342.55
2022-08-29T07:41:55.582Z,98342.70
2022-08-29T07:44:35.113Z,98347.17
2022-08-29T07:47:09.559Z,98343.09
2022-08-29T07:49:41.575Z,98339.84
2022-08-29T07:52:14.264Z,98337.38
2022-08-29T07:54:54.412Z,98341.38
2022-08-29T07:57:28.284Z,98339.31
2022-08-29T07:59:56.658Z,98338.20
2022-08-29T08:02:30.277Z,98342.83
2022-08-29T08:05:09.758Z,98347.95
2022-08-29T08:07:42.874Z,98347.30
2022-08-29T08:10:13.608Z,98342.01
2022-08-29T08:12:53.294Z,98342.38
2022-08-29T08:15:26.203Z,98341.17
2022-08-29T08:18:04.413Z,98343.63
2022-08-29T08:20:35.793Z,98343.99
2022-08-29T08:23:09.112Z,98337.75
2022-08-29T08:25:44.576Z,98338.76
2022-08-29T08:28:21.764Z,98335.89
2022-08-29T08:31:03.649Z,98336.52
2022-08-29T08:33:46.811Z,98335.84
2022-08-29T08:36:19.573Z,98337.17
2022-08-29T08:39:02.157Z,98333.39
2022-08-29T08:41:37.537Z,98327.05
2022-08-29T08:44:32.981Z,98326.42
2022-08-29T08:47:27.327Z,98324.27
2022-08-29T08:50:15.945Z,98322.56
2022-08-29T08:52:57.145Z,98317.02
2022-08-29T08:55:46.608Z,98316.19
2022-08-29T08:58:37.114Z,98314.99
2022-08-29T09:01:28.938Z,98313.15
2022-08-29T09:04:00.802Z,98314.33
2022-08-29T09:06:45.176Z,98317.98
2022-08-29T09:09:33.664Z,98315.23
2022-08-29T09:12:11.649Z,98313.87
2022-08-29T09:15:00.675Z,98308.73
2022-08-29T09:17:48.987Z,98307.60
2022-08-29T09:20:26.430Z,98303.87
2022-08-29T09:23:31.482Z,98304.16
2022-08-29T09:26:06.435Z,98302.91
2022-08-29T09:28:42.297Z,98304.70
2022-08-29T09:31:25.111Z,98305.65
2022-08-29T09:34:02.022Z,98305.26
2022-08-29T09:36:48.659Z,98301.48
2022-08-29T09:39:33.101Z,98298.80
2022-08-29T09:42:23.629Z,98297.44
2022-08-29T09:44:59.134Z,98294.55
2022-08-29T09:47:34.657Z,98293.84
2022-08-29T09:50:13.923Z,98292.60
2022-08-29T09:52:52.916Z,98291.32
2022-08-29T09:55:27.804Z,98289.38
2022-08-29T09:58:12.202Z,98289.58
2022-08-29T10:00:49.499Z,98288.88
2022-08-29T10:03:36.734Z,98286.80
2022-08-29T10:06:25.394Z,98285.67
2022-08-29T10:08:57.472Z,98286.81
2022-08-29T10:11:56.184Z,98285.42
2022-08-29T10:14:54.559Z,98283.16
2022-08-29T10:17:55.847Z,98285.20
2022-08-29T10:20:48.029Z,98284.96
2022-08-29T10:23:38.791Z,98283.88
2022-08-29T10:26:20.788Z,98279.67
2022-08-29T10:29:18.814Z,98275.25
2022-08-29T10:31:56.193Z,98271.45
2022-08-29T10:34:43.982Z,98270.08
2022-08-29T10:37:28.637Z,98267.05
2022-08-29T10:40:08.321Z,98263.17
2022-08-29T10:42:43.477Z,98268.15
2022-08-29T10:45:23.842Z,98266.48
2022-08-29T10:48:02.783Z,98264.10
2022-08-29T10:50:46.380Z,98262.34
2022-08-29T10:53:25.806Z,98259.96
2022-08-29T10:56:08.500Z,98258.82
2022-08-29T10:59:03.355Z,98254.95
2022-08-29T11:01:45.063Z,98248.13
2022-08-29T11:04:18.667Z,98250.27
2022-08-29T11:07:02.691Z,98253.09
2022-08-29T11:09:51.586Z,98249.71
2022-08-29T11:12:46.677Z,98247.73
2022-08-29T11:15:31.650Z,98244.05
2022-08-29T11:18:12.483Z,98237.05
2022-08-29T11:21:02.113Z,98235.55
2022-08-29T11:23:39.060Z,98233.89
2022-08-29T11:26:16.837Z,98229.10
2022-08-29T11:29:05.839Z,98225.02
2022-08-29T11:32:01.956Z,98223.11
2022-08-29T11:34:47.856Z,98222.96
2022-08-29T11:37:47.750Z,98219.58
2022-08-29T11:40:47.658Z,98215.25
2022-08-29T11:43:47.676Z,98216.65
2022-08-29T11:46:33.845Z,98214.47
2022-08-29T11:49:21.749Z,98214.45
2022-08-29T11:52:13.648Z,98211.97
2022-08-29T11:54:56.286Z,98213.30
2022-08-29T11:57:34.345Z,98213.06
2022-08-29T12:02:58.419Z,98203.37
2022-08-29T12:05:30.060Z,98200.38
2022-08-29T12:08:37.024Z,98195.04
2022-08-29T12:11:10.403Z,98192.48
2022-08-29T12:13:48.365Z,98191.27
2022-08-29T12:16:21.487Z,98188.67
2022-08-29T12:19:01.241Z,98188.98
2022-08-29T12:21:44.629Z,98192.04
2022-08-29T12:24:33.626Z,98193.05
2022-08-29T12:27:04.358Z,98195.67
2022-08-29T12:29:45.225Z,98189.63
2022-08-29T12:32:56.574Z,98188.99
2022-08-29T12:36:02.428Z,98184.85
2022-08-29T12:38:33.074Z,98187.95
2022-08-29T12:41:06.060Z,98183.64
2022-08-29T12:43:49.067Z,98182.65
2022-08-29T12:46:30.676Z,98176.77
2022-08-29T12:49:21.729Z,98172.58
2022-08-29T12:51:57.658Z,98172.98
2022-08-29T12:54:33.511Z,98169.91
2022-08-29T12:57:21.533Z,98166.57
2022-08-29T12:59:56.926Z,98171.45
2022-08-29T13:02:38.902Z,98173.69
2022-08-29T13:05:32.746Z,98171.95
2022-08-29T13:08:13.457Z,98172.95
2022-08-29T13:11:20.282Z,98168.41
2022-08-29T13:13:55.856Z,98168.79
2022-08-29T13:16:34.185Z,98165.40
2022-08-29T13:19:19.419Z,98166.50
2022-08-29T13:21:47.534Z,98165.11
2022-08-29T13:24:21.043Z,98159.71
2022-08-29T13:27:04.674Z,98157.55
2022-08-29T13:29:41.780Z,98154.98
2022-08-29T13:32:24.976Z,98151.65
2022-08-29T13:35:06.582Z,98152.30
2022-08-29T13:37:40.703Z,98152.48
2022-08-29T13:40:30.707Z,98146.77
2022-08-29T13:43:10.070Z,98146.26
2022-08-29T13:45:40.890Z,98142.64
2022-08-29T13:48:15.435Z,98139.88
2022-08-29T13:50:49.220Z,98136.02
2022-08-29T13:53:19.915Z,98131.81
2022-08-29T13:55:55.958Z,98127.03
2022-08-29T13:58:40.324Z,98129.98
2022-08-29T14:01:30.837Z,98126.00
2022-08-29T14:04:41.052Z,98125.88
2022-08-29T14:07:29.520Z,98125.54
2022-08-29T14:10:00.356Z,98126.12
2022-08-29T14:12:33.647Z,98122.40
2022-08-29T14:15:26.285Z,98123.84
2022-08-29T14:17:57.770Z,98122.27
2022-08-29T14:20:42.549Z,98127.18
2022-08-29T14:23:13.142Z,98125.42
2022-08-29T14:25:47.511Z,98120.55
2022-08-29T14:28:16.141Z,98119.07
2022-08-29T14:30:51.936Z,98117.00
2022-08-29T14:33:34.917Z,98114.55
2022-08-29T14:36:03.657Z,98110.01
2022-08-29T14:38:38.993Z,98112.30
2022-08-29T14:41:15.262Z,98110.73
2022-08-29T14:43:49.096Z,98104.43
2022-08-29T14:46:26.902Z,98104.63
2022-08-29T14:49:04.327Z,98108.23
2022-08-29T14:51:36.593Z,98111.61
2022-08-29T14:54:09.649Z,98112.06
2022-08-29T14:56:50.662Z,98113.55
2022-08-29T14:59:25.834Z,98112.46
2022-08-29T15:02:01.212Z,98111.12
2022-08-29T15:04:38.217Z,98112.95
2022-08-29T15:07:17.710Z,98108.08
2022-08-29T15:09:48.955Z,98107.56
2022-08-29T15:12:18.362Z,98108.47
2022-08-29T15:14:56.065Z,98111.90
2022-08-29T15:17:32.861Z,98115.02
2022-08-29T15:23:08.284Z,98120.64
2022-08-29T15:25:39.976Z,98119.90
2022-08-29T15:28:31.338Z,98120.00
2022-08-29T15:31:08.028Z,98115.73
2022-08-29T15:33:41.075Z,98113.84
2022-08-29T15:36:10.865Z,98116.04
2022-08-29T15:38:43.326Z,98118.30
2022-08-29T15:41:21.065Z,98122.38
2022-08-29T15:43:53.244Z,98125.98
2022-08-29T15:46:28.112Z,98126.98
2022-08-29T15:49:11.930Z,98124.29
2022-08-29T15:51:59.884Z,98126.95
2022-08-29T15:54:33.438Z,98129.36
2022-08-29T15:57:08.071Z,98130.20
2022-08-29T15:59:57.196Z,98128.23
2022-08-29T16:02:29.154Z,98133.33
2022-08-29T16:05:03.297Z,98137.02
2022-08-29T16:07:41.085Z,98138.13
2022-08-29T16:10:19.060Z,98140.06
2022-08-29T16:12:54.506Z,98140.30
2022-08-29T16:15:33.002Z,98145.20
2022-08-29T16:18:16.652Z,98149.23
2022-08-29T16:20:52.723Z,98148.66
2022-08-29T16:23:31.721Z,98151.15
2022-08-29T16:26:00.318Z,98151.99
2022-08-29T16:28:35.540Z,98152.60
2022-08-29T16:31:10.287Z,98153.05
2022-08-29T16:33:42.562Z,98154.73
2022-08-29T16:36:19.967Z,98155.25
2022-08-29T16:38:54.417Z,98154.58
2022-08-29T16:41:32.915Z,98154.98
2022-08-29T16:44:08.355Z,98154.29
2022-08-29T16:46:37.596Z,98155.58
2022-08-29T16:49:17.621Z,98153.06
2022-08-29T16:51:49.508Z,98156.90
2022-08-29T16:54:22.004Z,98157.91
2022-08-29T16:56:54.854Z,98160.87
2022-08-29T16:59:24.363Z,98159.15
2022-08-29T17:02:14.771Z,98156.06
2022-08-29T17:04:54.870Z,98158.84
2022-08-29T17:07:35.789Z,98163.16
2022-08-29T17:10:10.973Z,98158.82
2022-08-29T17:12:38.989Z,98161.38
2022-08-29T17:15:11.872Z,98161.73
2022-08-29T17:17:42.044Z,98168.83
2022-08-29T17:20:16.388Z,98168.30
2022-08-29T17:22:53.740Z,98168.59
2022-08-29T17:25:35.918Z,98172.36
2022-08-29T17:28:19.447Z,98175.68
2022-08-29T17:30:56.047Z,98180.34
2022-08-29T17:33:31.402Z,98185.73
2022-08-29T17:36:09.008Z,98186.64
2022-08-29T17:38:51.468Z,98190.19
2022-08-29T17:41:30.694Z,98192.69
2022-08-29T17:44:03.926Z,98195.40
2022-08-29T17:46:36.637Z,98203.95
2022-08-29T17:49:14.118Z,98209.67
2022-08-29T17:51:53.914Z,98210.27
2022-08-29T17:54:37.908Z,98210.49
2022-08-29T17:57:09.477Z,98211.09
2022-08-29T17:59:39.614Z,98214.46
2022-08-29T18:02:10.430Z,98215.39
2022-08-29T18:04:45.768Z,98217.30
2022-08-29T18:07:18.572Z,98220.77
2022-08-29T18:09:59.362Z,98223.83
2022-08-29T18:12:35.260Z,98222.79
2022-08-29T18:15:16.770Z,98223.20
2022-08-29T18:17:58.936Z,98224.11
2022-08-29T18:20:33.456Z,98232.74
2022-08-29T18:23:04.149Z,98233.48
2022-08-29T18:25:37.708Z,98232.58
2022-08-29T18:28:21.419Z,98231.20
2022-08-29T18:30:55.040Z,98237.48
2022-08-29T18:33:44.398Z,98242.63
2022-08-29T18:36:24.626Z,98249.67
2022-08-29T18:38:57.656Z,98253.63
2022-08-29T18:41:37.753Z,98252.61
2022-08-29T18:44:12.291Z,98253.85
2022-08-29T18:46:48.245Z,98260.80
2022-08-29T18:49:52.155Z,98261.59
2022-08-29T18:52:21.727Z,98261.14
2022-08-29T18:54:54.915Z,98256.61
2022-08-29T18:57:27.554Z,98257.61
2022-08-29T19:00:10.472Z,98257.84
2022-08-29T19:02:43.652Z,98259.37
2022-08-29T19:05:19.770Z,98263.05
2022-08-29T19:07:52.332Z,98261.99
2022-08-29T19:10:22.805Z,98262.18
2022-08-29T19:12:56.475Z,98261.22
2022-08-29T19:15:30.555Z,98259.27
2022-08-29T19:18:03.854Z,98261.04
2022-08-29T19:20:54.245Z,98264.88
2022-08-29T19:23:25.784Z,98268.38
2022-08-29T19:26:08.829Z,98269.24
2022-08-29T19:28:42.373Z,98273.55
2022-08-29T19:31:15.024Z,98276.06
2022-08-29T19:33:51.391Z,98279.25
2022-08-29T19:36:28.889Z,98279.70
2022-08-29T19:39:09.594Z,98278.93
2022-08-29T19:41:43.853Z,98282.20
2022-08-29T19:44:13.235Z,98281.72
2022-08-29T19:46:54.042Z,98285.72
2022-08-29T19:49:27.319Z,98285.08
2022-08-29T19:52:08.537Z,98280.70
2022-08-29T19:54:50.440Z,98284.02
2022-08-29T19:57:18.562Z,98285.52
2022-08-29T19:59:57.605Z,98286.91
2022-08-29T20:02:36.232Z,98290.76
2022-08-29T20:05:12.896Z,98292.48
2022-08-29T20:07:46.891Z,98289.45
2022-08-29T20:10:26.202Z,98289.77
2022-08-29T20:13:01.106Z,98290.95
2022-08-29T20:15:30.995Z,98288.95
2022-08-29T20:18:02.701Z,98287.83
2022-08-29T20:20:44.705Z,98286.95
2022-08-29T20:23:20.074Z,98287.79
2022-08-29T20:25:56.900Z,98284.85
2022-08-29T20:28:28.907Z,98289.23
2022-08-29T20:31:04.018Z,98286.06
2022-08-29T20:33:48.430Z,98286.31
2022-08-29T20:36:38.815Z,98284.35
2022-08-29T20:39:13.111Z,98284.62
2022-08-29T20:41:43.073Z,98285.36
2022-08-29T20:44:18.606Z,98282.09
2022-08-29T20:46:59.026Z,98284.64
2022-08-29T20:49:31.752Z,98286.89
2022-08-29T20:52:09.730Z,98290.58
2022-08-29T20:54:52.618Z,98297.20
2022-08-29T20:57:31.968Z,98297.92
2022-08-29T21:00:02.244Z,98301.36
2022-08-29T21:02:56.661Z,98303.30
2022-08-29T21:05:47.388Z,98306.98
2022-08-29T21:08:24.792Z,98309.46
2022-08-29T21:11:06.433Z,98308.52
2022-08-29T21:13:40.340Z,98309.43
2022-08-29T21:16:24.605Z,98310.84
2022-08-29T21:18:58.179Z,98312.65
2022-08-29T21:21:37.252Z,98314.36
2022-08-29T21:24:11.544Z,98310.00
2022-08-29T21:26:42.290Z,98311.31
2022-08-29T21:29:16.570Z,98311.23
2022-08-29T21:31:48.472Z,98312.61
2022-08-29T21:34:20.935Z,98314.70
2022-08-29T21:36:55.953Z,98316.41
2022-08-29T21:39:31.571Z,98317.13
2022-08-29T21:42:03.606Z,98317.98
2022-08-29T21:44:37.063Z,98321.48
2022-08-29T21:47:05.441Z,98323.98
2022-08-29T21:49:37.268Z,98325.77
2022-08-29T21:52:11.614Z,98328.41
2022-08-29T21:54:44.819Z,98325.94
2022-08-29T21:57:18.468Z,98324.51
2022-08-29T21:59:56.049Z,98331.09
2022-08-29T22:02:27.775Z,98332.64
2022-08-29T22:05:01.145Z,98330.02
2022-08-29T22:07:44.516Z,98328.05
2022-08-29T22:10:20.625Z,98329.84
2022-08-29T22:12:50.097Z,98329.44
2022-08-29T22:15:37.816Z,98326.70
2022-08-29T22:18:17.991Z,98329.56
2022-08-29T22:20:54.966Z,98329.05
2022-08-29T22:23:39.383Z,98328.59
2022-08-29T22:26:08.431Z,98328.95
2022-08-29T22:28:45.558Z,98328.19
2022-08-29T22:31:22.053Z,98329.87
2022-08-29T22:34:17.461Z,98331.13
2022-08-29T22:36:48.247Z,98332.52
2022-08-29T22:39:29.944Z,98332.05
2022-08-29T22:42:00.509Z,98327.28
2022-08-29T22:45:02.936Z,98327.45
2022-08-29T22:47:43.644Z,98325.30
2022-08-29T22:50:24.269Z,98326.69
2022-08-29T22:53:00.093Z,98322.54
2022-08-29T22:55:36.179Z,98322.45
2022-08-29T22:58:07.227Z,98321.66
2022-08-29T23:00:40.007Z,98323.13
2022-08-29T23:03:10.322Z,98320.77
2022-08-29T23:05:39.749Z,98319.75
2022-08-29T23:08:18.437Z,98316.25
2022-08-29T23:10:51.601Z,98315.55
2022-08-29T23:13:25.907Z,98317.60
2022-08-29T23:15:57.432Z,98317.15
2022-08-29T23:18:35.055Z,98313.48
2022-08-29T23:21:07.336Z,98310.46
2022-08-29T23:23:39.789Z,98309.96
2022-08-29T23:26:07.856Z,98307.94
2022-08-29T23:28:44.339Z,98307.98
2022-08-29T23:31:20.460Z,98306.10
2022-08-29T23:33:55.976Z,98308.45
2022-08-29T23:36:31.413Z,98308.25
2022-08-29T23:38:59.477Z,98312.40
2022-08-29T23:41:31.471Z,98310.26
2022-08-29T23:44:04.012Z,98311.09
2022-08-29T23:46:40.951Z,98311.87
2022-08-29T23:49:43.991Z,98310.88
2022-08-29T23:52:14.358Z,98307.99
2022-08-29T23:54:42.488Z,98309.92
2022-08-29T23:57:13.046Z,98311.08
